Time;durP1;ratioP1;P1;durP2;ratioP2;P2;SDS_P1;SDS_P2;PMS_P1;PMS_P2;Temp;Humidity;BMP_temperature;BMP_pressure;BME280_temperature;BME280_humidity;BME280_pressure;Samples;Min_cycle;Max_cycle;Signal;HPM_P1;HPM_P2
2021/10/18 00:00:05;;;;;;;10.07;3.77;;;9.60;1.00;;;;;;5020183;28;21017;-84
2021/10/18 00:02:38;;;;;;;8.33;4.30;;;9.60;1.00;;;;;;5023183;28;20466;-83
2021/10/18 00:05:08;;;;;;;10.00;3.63;;;9.60;1.00;;;;;;5022942;28;20958;-82
2021/10/18 00:07:34;;;;;;;11.23;3.90;;;9.50;1.00;;;;;;5022758;28;20491;-83
2021/10/18 00:10:00;;;;;;;11.07;3.80;;;9.50;1.00;;;;;;5028495;28;21029;-83
2021/10/18 00:12:27;;;;;;;10.70;3.17;;;9.50;1.00;;;;;;5025174;28;21184;-83
2021/10/18 00:14:54;;;;;;;11.10;4.40;;;9.50;1.00;;;;;;5018996;28;20842;-82
2021/10/18 00:17:20;;;;;;;15.03;4.00;;;9.40;1.00;;;;;;5024685;28;20465;-82
2021/10/18 00:19:46;;;;;;;10.17;4.13;;;9.30;1.00;;;;;;5019969;28;20727;-83
2021/10/18 00:22:11;;;;;;;10.20;3.33;;;9.30;1.00;;;;;;5019960;28;20187;-84
2021/10/18 00:24:37;;;;;;;13.03;3.60;;;9.20;1.00;;;;;;5021984;28;20203;-83
2021/10/18 00:27:02;;;;;;;9.67;3.47;;;9.20;1.00;;;;;;5022558;28;20247;-83
2021/10/18 00:29:28;;;;;;;8.60;3.63;;;9.20;1.00;;;;;;5024532;28;20187;-84
2021/10/18 00:31:54;;;;;;;8.93;3.63;;;9.20;1.00;;;;;;5019521;28;20210;-84
2021/10/18 00:34:19;;;;;;;13.67;3.40;;;9.20;1.00;;;;;;5027907;28;20226;-84
2021/10/18 00:36:45;;;;;;;11.23;3.40;;;9.30;1.00;;;;;;5024362;28;20205;-84
2021/10/18 00:39:11;;;;;;;10.60;4.03;;;9.30;1.00;;;;;;5025866;28;20240;-83
2021/10/18 00:41:36;;;;;;;10.47;3.30;;;9.30;1.00;;;;;;5027540;28;20206;-84
2021/10/18 00:44:02;;;;;;;12.37;3.67;;;9.20;1.00;;;;;;5024054;28;20194;-84
2021/10/18 00:46:29;;;;;;;11.40;3.50;;;9.20;1.00;;;;;;5024260;28;20679;-84
2021/10/18 00:48:55;;;;;;;12.97;3.50;;;9.20;1.00;;;;;;5024426;28;20461;-83
2021/10/18 00:51:22;;;;;;;11.57;3.50;;;9.20;1.00;;;;;;5021685;28;20450;-82
2021/10/18 00:53:49;;;;;;;11.07;3.30;;;9.20;1.00;;;;;;5022346;28;20227;-83
2021/10/18 00:56:15;;;;;;;8.67;3.13;;;9.10;1.00;;;;;;5027842;28;20461;-84
2021/10/18 00:58:42;;;;;;;8.57;3.70;;;9.10;1.00;;;;;;5025838;28;20472;-83
2021/10/18 01:01:09;;;;;;;8.60;3.50;;;9.10;1.00;;;;;;5029243;28;20476;-83
2021/10/18 01:03:35;;;;;;;10.17;3.73;;;9.10;1.00;;;;;;5027609;28;21498;-83
2021/10/18 01:06:02;;;;;;;8.47;3.53;;;9.10;1.00;;;;;;5029318;28;20453;-84
2021/10/18 01:08:27;;;;;;;8.53;3.73;;;8.90;1.00;;;;;;5029002;28;20488;-83
2021/10/18 01:10:53;;;;;;;10.50;3.70;;;9.00;1.00;;;;;;5025300;28;21026;-84
2021/10/18 01:13:19;;;;;;;9.47;3.50;;;8.90;1.00;;;;;;5029185;28;20202;-82
2021/10/18 01:15:45;;;;;;;10.60;3.80;;;8.90;1.00;;;;;;5021439;28;20614;-84
2021/10/18 01:18:11;;;;;;;10.77;4.27;;;8.90;1.00;;;;;;5025483;28;20472;-84
2021/10/18 01:20:38;;;;;;;9.67;4.70;;;9.00;1.00;;;;;;5026594;28;20187;-83
2021/10/18 01:23:06;;;;;;;8.37;4.00;;;8.90;1.00;;;;;;5027182;28;20277;-83
2021/10/18 01:25:32;;;;;;;8.83;3.70;;;8.90;1.00;;;;;;5022339;28;20454;-83
2021/10/18 01:27:58;;;;;;;9.67;3.90;;;9.00;1.00;;;;;;5024420;28;20511;-83
2021/10/18 01:30:25;;;;;;;9.70;4.77;;;8.90;1.00;;;;;;5024363;28;20465;-84
2021/10/18 01:32:50;;;;;;;6.20;3.80;;;8.90;1.00;;;;;;5026784;28;20480;-83
2021/10/18 01:35:16;;;;;;;7.60;3.87;;;8.80;1.00;;;;;;5027564;28;20496;-83
2021/10/18 01:37:42;;;;;;;9.03;4.13;;;8.80;1.00;;;;;;5028548;28;20194;-83
2021/10/18 01:40:13;;;;;;;9.50;4.63;;;8.80;1.00;;;;;;5029674;28;20677;-83
2021/10/18 01:42:40;;;;;;;11.00;4.33;;;8.80;1.00;;;;;;5032844;28;20543;-83
2021/10/18 01:45:08;;;;;;;9.07;4.40;;;8.90;1.00;;;;;;5007903;28;20469;-83
2021/10/18 01:47:33;;;;;;;8.40;3.93;;;8.80;1.00;;;;;;5024106;28;20468;-83
2021/10/18 01:49:59;;;;;;;9.57;4.33;;;8.70;1.00;;;;;;5028984;28;20457;-83
2021/10/18 01:52:25;;;;;;;10.33;5.03;;;8.70;1.00;;;;;;5028183;28;20194;-84
2021/10/18 01:54:50;;;;;;;6.87;3.73;;;8.70;1.00;;;;;;5027251;28;20223;-83
2021/10/18 01:57:16;;;;;;;8.10;3.63;;;8.90;1.00;;;;;;5013618;28;20211;-83
2021/10/18 01:59:42;;;;;;;8.00;4.50;;;8.90;1.00;;;;;;5021165;28;20179;-83
2021/10/18 02:02:08;;;;;;;7.10;3.97;;;8.80;1.00;;;;;;5021893;28;20492;-83
2021/10/18 02:04:34;;;;;;;7.40;4.20;;;8.80;1.00;;;;;;5025683;28;20183;-82
2021/10/18 02:06:59;;;;;;;7.37;4.20;;;9.00;1.00;;;;;;5023682;28;20199;-82
2021/10/18 02:09:25;;;;;;;8.20;4.40;;;9.00;1.00;;;;;;5025937;28;20180;-82
2021/10/18 02:11:51;;;;;;;5.77;3.90;;;8.90;1.00;;;;;;5026049;28;20238;-84
2021/10/18 02:14:17;;;;;;;10.13;4.40;;;8.90;1.00;;;;;;5027303;28;21315;-84
2021/10/18 02:16:45;;;;;;;6.50;3.90;;;8.80;1.00;;;;;;5019840;28;20209;-82
2021/10/18 02:19:11;;;;;;;6.17;4.20;;;8.80;1.00;;;;;;5028121;28;20477;-84
2021/10/18 02:21:37;;;;;;;8.50;4.37;;;8.70;1.00;;;;;;5024861;28;20449;-83
2021/10/18 02:24:02;;;;;;;6.20;3.90;;;8.80;1.00;;;;;;5022844;28;21199;-84
2021/10/18 02:26:28;;;;;;;7.40;3.90;;;8.70;1.00;;;;;;5026064;28;20172;-84
2021/10/18 02:28:54;;;;;;;7.13;4.60;;;8.70;1.00;;;;;;5025318;28;20450;-83
2021/10/18 02:31:22;;;;;;;9.83;4.13;;;8.70;1.00;;;;;;5027558;28;20528;-83
2021/10/18 02:33:48;;;;;;;7.77;4.10;;;8.60;1.00;;;;;;5022949;28;20576;-82
2021/10/18 02:36:13;;;;;;;6.70;3.80;;;8.70;1.00;;;;;;5026689;28;20207;-83
2021/10/18 02:38:39;;;;;;;7.23;4.27;;;8.70;1.00;;;;;;5029187;28;20248;-83
2021/10/18 02:41:06;;;;;;;7.03;4.23;;;8.70;1.00;;;;;;5026474;28;20195;-83
2021/10/18 02:43:31;;;;;;;6.50;3.70;;;8.70;1.00;;;;;;5028667;28;21065;-83
2021/10/18 02:45:58;;;;;;;6.30;4.20;;;8.70;1.00;;;;;;5024138;28;20491;-83
2021/10/18 02:48:24;;;;;;;6.63;3.83;;;8.70;1.00;;;;;;5027371;28;20659;-83
2021/10/18 02:50:52;;;;;;;10.83;4.27;;;8.80;1.00;;;;;;5026378;28;20440;-83
2021/10/18 02:53:18;;;;;;;7.03;3.87;;;8.80;1.00;;;;;;5023534;28;20195;-84
2021/10/18 02:55:44;;;;;;;6.50;4.30;;;8.80;1.00;;;;;;5023825;28;20454;-83
2021/10/18 02:58:10;;;;;;;7.20;3.73;;;8.80;1.00;;;;;;5025118;28;20535;-83
2021/10/18 03:00:35;;;;;;;5.70;3.60;;;8.80;1.00;;;;;;5027570;28;20251;-83
2021/10/18 03:03:01;;;;;;;6.33;4.10;;;8.70;1.00;;;;;;5022730;28;20286;-83
2021/10/18 03:05:28;;;;;;;4.83;3.47;;;8.70;1.00;;;;;;5025642;28;20188;-84
2021/10/18 03:07:55;;;;;;;4.43;3.20;;;8.80;1.00;;;;;;5010705;28;21049;-84
2021/10/18 03:10:21;;;;;;;4.60;4.03;;;8.80;1.00;;;;;;5019189;28;20437;-83
2021/10/18 03:12:47;;;;;;;4.90;4.10;;;8.80;1.00;;;;;;5020009;28;20179;-83
2021/10/18 03:15:13;;;;;;;5.70;3.60;;;8.90;1.00;;;;;;5025724;28;20963;-83
2021/10/18 03:17:40;;;;;;;6.00;3.83;;;8.90;1.00;;;;;;5014760;28;20315;-83
2021/10/18 03:20:07;;;;;;;6.13;3.90;;;8.80;1.00;;;;;;5023703;28;20465;-83
2021/10/18 03:22:32;;;;;;;5.47;3.90;;;8.80;1.00;;;;;;5025960;28;20873;-83
2021/10/18 03:24:58;;;;;;;9.90;3.60;;;8.80;1.00;;;;;;5027335;28;20449;-84
2021/10/18 03:27:23;;;;;;;8.23;4.90;;;8.80;1.00;;;;;;5026453;28;20175;-83
2021/10/18 03:29:49;;;;;;;7.23;4.37;;;8.90;1.00;;;;;;5019135;28;20206;-84
2021/10/18 03:32:15;;;;;;;10.60;5.10;;;8.90;1.00;;;;;;5019130;28;20195;-82
2021/10/18 03:34:41;;;;;;;6.00;3.93;;;8.90;1.00;;;;;;5020984;28;20219;-83
2021/10/18 03:37:06;;;;;;;7.13;3.80;;;9.00;1.00;;;;;;5030810;28;20183;-83
2021/10/18 03:39:32;;;;;;;4.87;3.20;;;8.90;1.00;;;;;;5027567;28;20244;-84
2021/10/18 03:41:59;;;;;;;6.87;4.43;;;8.90;1.00;;;;;;5022996;28;20310;-84
2021/10/18 03:44:24;;;;;;;7.93;3.90;;;8.80;1.00;;;;;;5031607;28;20456;-82
2021/10/18 03:46:50;;;;;;;5.53;4.20;;;8.70;1.00;;;;;;5030644;28;20938;-83
2021/10/18 03:49:16;;;;;;;5.97;4.10;;;8.70;1.00;;;;;;5037883;28;20194;-83
2021/10/18 03:51:42;;;;;;;6.27;4.27;;;8.80;1.00;;;;;;5033682;28;20188;-83
2021/10/18 03:54:07;;;;;;;6.03;3.73;;;8.80;1.00;;;;;;5032821;28;20219;-84
2021/10/18 03:56:33;;;;;;;6.50;4.17;;;8.90;1.00;;;;;;5035754;28;20698;-84
2021/10/18 03:58:59;;;;;;;11.67;4.40;;;8.90;1.00;;;;;;5033147;28;20492;-83
2021/10/18 04:01:27;;;;;;;6.40;4.00;;;8.90;1.00;;;;;;5030530;28;20176;-84
2021/10/18 04:03:52;;;;;;;6.50;4.33;;;8.90;1.00;;;;;;5032372;28;20714;-84
2021/10/18 04:06:18;;;;;;;8.73;4.73;;;8.90;1.00;;;;;;5034214;28;20210;-83
2021/10/18 04:08:48;;;;;;;5.30;3.37;;;8.90;1.00;;;;;;5031509;28;20183;-85
2021/10/18 04:11:14;;;;;;;7.43;4.23;;;8.80;1.00;;;;;;5027837;28;20698;-90
2021/10/18 04:13:40;;;;;;;6.10;3.90;;;8.80;1.00;;;;;;5029171;28;20469;-84
2021/10/18 04:16:05;;;;;;;7.93;4.00;;;8.80;1.00;;;;;;5028971;28;20675;-85
2021/10/18 04:18:34;;;;;;;7.60;4.30;;;8.80;1.00;;;;;;5028747;28;21211;-87
2021/10/18 04:21:00;;;;;;;6.87;4.10;;;8.80;1.00;;;;;;5019188;28;20454;-87
2021/10/18 04:23:26;;;;;;;6.83;4.03;;;8.80;1.00;;;;;;5026100;28;20465;-82
2021/10/18 04:25:52;;;;;;;7.13;4.53;;;8.70;1.00;;;;;;5035342;28;20551;-83
2021/10/18 04:28:19;;;;;;;9.03;3.87;;;8.80;1.00;;;;;;5027215;28;21029;-84
2021/10/18 04:30:45;;;;;;;6.73;4.70;;;8.80;1.00;;;;;;5035871;28;20529;-83
2021/10/18 04:33:11;;;;;;;7.33;4.47;;;8.70;1.00;;;;;;5033806;28;20468;-83
2021/10/18 04:35:37;;;;;;;8.93;4.90;;;8.80;1.00;;;;;;5028925;28;20470;-83
2021/10/18 04:38:04;;;;;;;10.37;4.87;;;8.80;1.00;;;;;;5027930;28;20530;-83
2021/10/18 04:40:32;;;;;;;10.63;4.40;;;8.70;1.00;;;;;;5034061;28;20459;-83
2021/10/18 04:42:58;;;;;;;9.13;4.47;;;8.70;1.00;;;;;;5038235;28;20953;-84
2021/10/18 04:45:24;;;;;;;7.07;4.67;;;8.70;1.00;;;;;;5034162;28;20461;-83
2021/10/18 04:47:51;;;;;;;6.63;4.50;;;8.80;1.00;;;;;;5024255;28;20473;-83
2021/10/18 04:50:20;;;;;;;6.13;4.87;;;8.80;1.00;;;;;;5023244;28;20514;-84
2021/10/18 04:52:46;;;;;;;8.63;5.10;;;8.70;1.00;;;;;;5017402;28;20270;-84
2021/10/18 04:55:12;;;;;;;11.07;6.50;;;8.80;1.00;;;;;;5018932;28;20590;-84
2021/10/18 04:57:58;;;;;;;9.67;4.73;;;8.80;1.00;;;;;;5014460;28;20454;-84
2021/10/18 05:00:25;;;;;;;7.30;4.63;;;8.80;1.00;;;;;;5016822;28;20462;-84
2021/10/18 05:02:51;;;;;;;7.90;5.77;;;8.90;1.00;;;;;;5022593;28;20552;-83
2021/10/18 05:05:20;;;;;;;8.10;5.90;;;8.90;1.00;;;;;;5033588;28;20592;-83
2021/10/18 05:07:46;;;;;;;7.73;4.80;;;8.80;1.00;;;;;;5031138;28;20459;-84
2021/10/18 05:10:13;;;;;;;8.37;5.47;;;8.80;1.00;;;;;;5033348;28;21127;-84
2021/10/18 05:12:39;;;;;;;6.93;5.10;;;8.70;1.00;;;;;;5023988;28;21049;-83
2021/10/18 05:15:07;;;;;;;8.73;5.27;;;8.60;1.00;;;;;;5031920;28;21412;-83
2021/10/18 05:17:33;;;;;;;12.30;6.43;;;8.60;1.00;;;;;;5030532;28;21098;-84
2021/10/18 05:19:59;;;;;;;8.60;6.10;;;8.60;1.00;;;;;;5028063;28;20446;-83
2021/10/18 05:22:27;;;;;;;11.17;5.90;;;8.60;1.00;;;;;;5031120;28;21192;-83
2021/10/18 05:24:53;;;;;;;7.77;5.40;;;8.70;1.00;;;;;;5028487;28;20468;-84
2021/10/18 05:27:18;;;;;;;10.80;5.77;;;8.70;1.00;;;;;;5033442;28;20453;-84
2021/10/18 05:29:44;;;;;;;7.83;5.90;;;8.70;1.00;;;;;;5027794;28;20206;-84
2021/10/18 05:32:10;;;;;;;9.50;6.60;;;8.60;1.00;;;;;;5030734;28;20213;-84
2021/10/18 05:34:35;;;;;;;9.80;5.90;;;8.50;1.00;;;;;;5026885;28;20210;-84
2021/10/18 05:37:01;;;;;;;8.70;6.57;;;8.60;1.00;;;;;;5032045;28;20179;-82
2021/10/18 05:39:26;;;;;;;10.23;6.87;;;8.40;1.00;;;;;;5033467;28;20183;-83
2021/10/18 05:41:52;;;;;;;12.30;6.63;;;8.50;1.00;;;;;;5014819;28;20218;-83
2021/10/18 05:44:18;;;;;;;7.73;6.10;;;8.40;1.00;;;;;;5039616;28;20556;-80
2021/10/18 05:46:44;;;;;;;12.30;6.70;;;8.30;1.00;;;;;;5036011;28;20209;-81
2021/10/18 05:49:09;;;;;;;9.93;7.63;;;8.30;1.00;;;;;;5029459;28;20473;-80
2021/10/18 05:51:36;;;;;;;10.40;6.47;;;8.30;1.00;;;;;;5034571;28;20222;-81
2021/10/18 05:54:02;;;;;;;11.63;6.53;;;8.20;1.00;;;;;;5029637;28;20489;-80
2021/10/18 05:56:28;;;;;;;8.40;6.17;;;8.40;1.00;;;;;;5036095;28;20449;-81
2021/10/18 05:58:54;;;;;;;8.63;6.73;;;8.40;1.00;;;;;;5035266;28;20508;-80
2021/10/18 06:01:19;;;;;;;8.87;6.57;;;8.20;1.00;;;;;;5033269;28;20190;-81
2021/10/18 06:03:45;;;;;;;8.00;6.30;;;8.10;1.00;;;;;;5029502;28;20214;-80
2021/10/18 06:06:11;;;;;;;13.93;7.20;;;8.20;1.00;;;;;;5031175;28;20193;-80
2021/10/18 06:08:37;;;;;;;9.80;6.97;;;8.20;1.00;;;;;;5035072;28;20189;-80
2021/10/18 06:11:04;;;;;;;9.30;6.30;;;8.20;1.00;;;;;;5034580;28;20453;-80
2021/10/18 06:13:30;;;;;;;9.60;6.00;;;8.20;1.00;;;;;;5030094;28;20198;-81
2021/10/18 06:15:56;;;;;;;9.77;6.60;;;8.10;1.00;;;;;;5037283;28;20453;-80
2021/10/18 06:18:22;;;;;;;13.57;7.30;;;8.20;1.00;;;;;;5037007;28;20836;-81
2021/10/18 06:20:50;;;;;;;12.90;7.67;;;8.20;1.00;;;;;;5032799;28;20464;-80
2021/10/18 06:23:17;;;;;;;9.07;7.50;;;8.30;1.00;;;;;;5031520;28;20798;-80
2021/10/18 06:25:43;;;;;;;7.50;6.00;;;8.20;1.00;;;;;;5035777;28;20966;-80
2021/10/18 06:28:09;;;;;;;12.63;6.83;;;8.10;1.00;;;;;;5035230;28;20541;-80
2021/10/18 06:30:36;;;;;;;16.37;7.30;;;8.10;1.00;;;;;;5031290;28;20446;-80
2021/10/18 06:33:03;;;;;;;10.50;6.93;;;8.10;1.00;;;;;;5032913;28;20546;-80
2021/10/18 06:35:34;;;;;;;14.60;7.37;;;8.20;1.00;;;;;;5038355;28;20485;-81
2021/10/18 06:38:00;;;;;;;8.70;7.10;;;8.20;1.00;;;;;;5028319;28;20442;-80
2021/10/18 06:40:26;;;;;;;10.63;7.60;;;8.30;1.00;;;;;;5029992;28;20615;-80
2021/10/18 06:42:53;;;;;;;14.83;8.53;;;8.30;1.00;;;;;;5021655;28;20191;-79
2021/10/18 06:45:19;;;;;;;12.57;7.70;;;8.30;1.00;;;;;;5027872;28;20481;-80
2021/10/18 06:47:44;;;;;;;10.00;7.97;;;8.30;1.00;;;;;;5032787;28;20470;-80
2021/10/18 06:50:10;;;;;;;10.43;7.07;;;8.30;1.00;;;;;;5035021;28;20461;-80
2021/10/18 06:52:42;;;;;;;16.37;8.07;;;8.40;1.00;;;;;;5027698;28;20578;-80
2021/10/18 06:55:09;;;;;;;15.20;8.47;;;8.50;1.00;;;;;;5030329;28;20485;-80
2021/10/18 06:57:34;;;;;;;11.23;7.43;;;8.50;1.00;;;;;;5027402;28;20810;-79
2021/10/18 07:00:00;;;;;;;10.60;6.83;;;8.60;1.00;;;;;;5027326;28;20481;-80
2021/10/18 07:02:26;;;;;;;9.73;7.27;;;8.70;1.00;;;;;;5020501;28;20226;-80
2021/10/18 07:04:52;;;;;;;12.50;7.50;;;8.80;1.00;;;;;;5022002;28;20210;-80
2021/10/18 07:07:19;;;;;;;13.17;7.77;;;8.90;1.00;;;;;;5026255;28;20604;-80
2021/10/18 07:09:45;;;;;;;12.30;7.33;;;9.00;1.00;;;;;;5026743;28;20508;-80
2021/10/18 07:12:10;;;;;;;9.77;6.43;;;9.10;1.00;;;;;;5025430;28;20520;-80
2021/10/18 07:14:36;;;;;;;10.63;6.40;;;9.20;1.00;;;;;;5030658;28;20227;-81
2021/10/18 07:17:02;;;;;;;8.13;6.33;;;9.30;1.00;;;;;;5025704;28;20195;-80
2021/10/18 07:19:28;;;;;;;11.47;6.17;;;9.30;1.00;;;;;;5026427;28;20210;-80
2021/10/18 07:21:54;;;;;;;10.60;6.40;;;9.40;1.00;;;;;;5025403;28;20507;-80
2021/10/18 07:24:20;;;;;;;10.23;6.50;;;9.40;1.00;;;;;;5027024;28;20855;-80
2021/10/18 07:26:52;;;;;;;7.67;6.80;;;9.60;1.00;;;;;;5028017;28;20477;-80
2021/10/18 07:29:20;;;;;;;10.40;6.40;;;9.60;1.00;;;;;;5026900;28;20194;-79
2021/10/18 07:31:46;;;;;;;8.47;6.33;;;9.70;1.00;;;;;;5023218;28;20446;-80
2021/10/18 07:34:14;;;;;;;10.10;6.90;;;9.70;1.00;;;;;;5017884;28;20492;-80
2021/10/18 07:36:48;;;;;;;11.73;7.63;;;9.80;1.00;;;;;;5024970;28;20218;-81
2021/10/18 07:39:15;;;;;;;11.60;7.60;;;9.80;1.00;;;;;;5028169;28;20445;-81
2021/10/18 07:41:42;;;;;;;13.70;8.50;;;9.90;1.00;;;;;;5019108;28;20786;-81
2021/10/18 07:44:07;;;;;;;9.60;6.80;;;9.90;1.00;;;;;;5016434;28;20858;-82
2021/10/18 07:46:33;;;;;;;9.00;7.00;;;10.00;1.00;;;;;;5021672;28;20466;-81
2021/10/18 07:49:00;;;;;;;10.67;7.90;;;10.00;1.00;;;;;;5021129;28;20265;-81
2021/10/18 07:51:26;;;;;;;11.13;7.83;;;10.20;1.00;;;;;;5024619;28;20890;-81
2021/10/18 07:53:52;;;;;;;9.70;6.90;;;10.30;1.00;;;;;;5018581;28;20557;-81
2021/10/18 07:56:18;;;;;;;11.43;8.07;;;10.40;1.00;;;;;;5024581;28;20449;-81
2021/10/18 07:58:44;;;;;;;12.23;7.70;;;10.50;1.00;;;;;;5026314;28;20545;-81
2021/10/18 08:01:09;;;;;;;17.70;7.60;;;10.60;1.00;;;;;;5017900;28;20187;-82
2021/10/18 08:03:35;;;;;;;14.37;7.70;;;10.60;1.00;;;;;;5020826;28;20198;-81
2021/10/18 08:06:04;;;;;;;9.83;6.70;;;10.70;1.00;;;;;;5024962;28;20187;-82
2021/10/18 08:08:31;;;;;;;9.93;6.97;;;10.90;1.00;;;;;;5028476;28;20190;-80
2021/10/18 08:10:58;;;;;;;8.93;7.47;;;10.90;1.00;;;;;;5027293;28;20451;-80
2021/10/18 08:13:23;;;;;;;8.90;6.57;;;10.90;1.00;;;;;;5024837;28;20552;-81
2021/10/18 08:15:49;;;;;;;9.17;7.70;;;11.00;1.00;;;;;;5021632;28;20461;-80
2021/10/18 08:18:18;;;;;;;10.20;7.13;;;11.00;1.00;;;;;;5024220;28;20271;-82
2021/10/18 08:20:44;;;;;;;12.67;6.50;;;11.00;1.00;;;;;;5016310;28;20226;-81
2021/10/18 08:23:10;;;;;;;11.93;8.03;;;11.10;1.00;;;;;;5022688;28;21074;-82
2021/10/18 08:25:35;;;;;;;11.30;6.90;;;11.20;1.00;;;;;;5022251;28;20236;-82
2021/10/18 08:28:01;;;;;;;14.73;8.27;;;11.30;1.00;;;;;;5025750;28;20190;-82
2021/10/18 08:30:27;;;;;;;10.83;8.10;;;11.40;1.00;;;;;;5021041;28;20241;-82
2021/10/18 08:32:52;;;;;;;15.47;7.43;;;11.50;1.00;;;;;;5021699;28;21023;-83
2021/10/18 08:35:19;;;;;;;11.00;7.87;;;11.60;1.00;;;;;;5023985;28;20221;-81
2021/10/18 08:40:34;;;;;;;10.30;7.47;;;11.70;1.00;;;;;;5024945;28;20534;-81
2021/10/18 08:45:28;;;;;;;14.77;8.93;;;11.80;1.00;;;;;;5023080;28;20438;-81
2021/10/18 08:47:55;;;;;;;10.83;7.97;;;11.80;1.00;;;;;;5026615;28;20229;-80
2021/10/18 08:50:23;;;;;;;11.97;8.57;;;11.80;1.00;;;;;;5019277;28;20454;-80
2021/10/18 08:52:49;;;;;;;10.30;8.33;;;11.80;1.00;;;;;;5020331;28;20489;-80
2021/10/18 08:55:15;;;;;;;11.77;9.17;;;11.80;1.00;;;;;;5016769;28;20485;-83
2021/10/18 08:57:40;;;;;;;10.60;8.33;;;11.90;1.00;;;;;;5021619;28;20476;-78
2021/10/18 09:00:27;;;;;;;13.17;9.27;;;11.90;1.00;;;;;;5021744;28;20194;-83
2021/10/18 09:02:52;;;;;;;15.93;9.07;;;12.00;1.00;;;;;;5026083;28;20198;-83
2021/10/18 09:05:21;;;;;;;14.03;8.13;;;12.10;1.00;;;;;;5027330;28;20500;-83
2021/10/18 09:07:47;;;;;;;9.50;7.63;;;12.10;1.00;;;;;;5022024;28;20179;-83
2021/10/18 09:10:14;;;;;;;11.73;7.90;;;12.20;1.00;;;;;;5015764;28;20979;-83
2021/10/18 09:12:44;;;;;;;11.00;7.50;;;12.20;1.00;;;;;;5020779;28;20187;-82
2021/10/18 09:15:26;;;;;;;9.80;7.67;;;12.20;1.00;;;;;;5022726;28;20485;-83
2021/10/18 09:17:59;;;;;;;10.17;7.00;;;12.20;1.00;;;;;;5025287;28;20608;-83
2021/10/18 09:20:35;;;;;;;14.90;8.70;;;12.20;1.00;;;;;;5018642;28;20456;-83
2021/10/18 09:23:28;;;;;;;11.80;6.20;;;12.20;1.00;;;;;;5020905;28;20436;-83
2021/10/18 09:26:00;;;;;;;11.07;6.40;;;12.30;1.00;;;;;;5016364;28;21100;-84
2021/10/18 09:28:27;;;;;;;11.93;6.87;;;12.30;1.00;;;;;;5030558;28;20446;-83
2021/10/18 09:30:55;;;;;;;11.87;7.00;;;12.40;1.00;;;;;;5027488;28;20462;-83
2021/10/18 09:36:01;;;;;;;11.77;7.20;;;12.60;1.00;;;;;;5022098;28;20472;-83
2021/10/18 09:38:27;;;;;;;12.00;6.53;;;12.70;1.00;;;;;;5024649;28;20442;-82
2021/10/18 09:40:59;;;;;;;13.90;7.07;;;12.70;1.00;;;;;;5027560;28;20484;-82
2021/10/18 09:43:39;;;;;;;12.83;5.77;;;12.70;1.00;;;;;;5022353;28;20452;-83
2021/10/18 09:46:22;;;;;;;14.30;5.60;;;12.70;1.00;;;;;;5027687;28;20495;-83
2021/10/18 10:56:30;;;;;;;19.10;5.00;;;13.90;1.00;;;;;;5017355;28;21061;-83
2021/10/18 10:59:23;;;;;;;21.57;5.53;;;14.00;1.00;;;;;;5024901;28;20466;-82
2021/10/18 11:01:48;;;;;;;21.47;5.67;;;14.00;1.00;;;;;;5034767;28;20448;-82
2021/10/18 11:04:29;;;;;;;21.47;6.40;;;14.00;1.00;;;;;;5033792;28;20449;-83
2021/10/18 11:06:56;;;;;;;20.10;6.10;;;14.00;1.00;;;;;;5029444;28;20221;-82
2021/10/18 11:09:43;;;;;;;23.63;5.77;;;14.00;1.00;;;;;;5031531;28;20794;-82
2021/10/18 11:12:27;;;;;;;21.17;5.20;;;13.90;1.00;;;;;;5021058;28;20523;-81
2021/10/18 11:15:18;;;;;;;24.30;5.93;;;13.90;1.00;;;;;;5025187;28;20533;-82
2021/10/18 11:17:50;;;;;;;23.67;5.97;;;14.00;1.00;;;;;;5024707;28;20977;-82
2021/10/18 11:20:22;;;;;;;23.23;6.13;;;14.00;1.00;;;;;;5028883;28;20480;-82
2021/10/18 11:22:56;;;;;;;24.13;5.80;;;14.00;1.00;;;;;;5020742;28;20449;-82
2021/10/18 11:25:28;;;;;;;19.67;5.50;;;14.10;1.00;;;;;;5027535;28;20864;-81
2021/10/18 11:28:05;;;;;;;18.90;5.63;;;14.20;1.00;;;;;;5028425;28;20438;-82
2021/10/18 11:30:33;;;;;;;19.83;5.70;;;14.20;1.00;;;;;;5025541;28;20496;-83
2021/10/18 11:33:04;;;;;;;26.00;7.30;;;14.20;1.00;;;;;;5025931;28;21299;-83
2021/10/18 11:35:32;;;;;;;20.30;5.20;;;14.30;1.00;;;;;;5026944;28;20497;-82
2021/10/18 11:38:10;;;;;;;23.50;6.80;;;14.30;1.00;;;;;;5028620;28;20834;-83
2021/10/18 11:40:46;;;;;;;21.30;5.90;;;14.20;1.00;;;;;;5006745;28;24938;-83
2021/10/18 11:43:25;;;;;;;23.13;6.03;;;14.30;1.00;;;;;;5018072;28;20512;-83
2021/10/18 11:45:56;;;;;;;22.27;6.67;;;14.40;1.00;;;;;;5019884;28;20580;-84
2021/10/18 11:48:27;;;;;;;24.33;7.60;;;14.40;1.00;;;;;;5024026;28;21011;-84
2021/10/18 11:50:59;;;;;;;22.90;6.40;;;14.30;1.00;;;;;;5019363;28;20486;-83
2021/10/18 11:53:26;;;;;;;27.07;6.70;;;14.30;1.00;;;;;;5015370;28;20527;-83
2021/10/18 11:56:03;;;;;;;22.63;6.43;;;14.30;1.00;;;;;;5017748;28;20501;-83
2021/10/18 11:58:34;;;;;;;22.40;6.83;;;14.30;1.00;;;;;;5021782;28;20468;-83
2021/10/18 12:01:09;;;;;;;26.13;6.57;;;14.30;1.00;;;;;;5019371;28;20526;-84
2021/10/18 12:03:36;;;;;;;24.10;6.90;;;14.50;1.00;;;;;;5018252;28;20453;-84
2021/10/18 12:06:04;;;;;;;20.97;5.87;;;14.60;1.00;;;;;;5018815;28;20473;-83
2021/10/18 12:08:32;;;;;;;23.73;6.50;;;14.70;1.00;;;;;;5025024;28;20550;-82
2021/10/18 12:11:00;;;;;;;24.87;6.03;;;14.90;1.00;;;;;;5021250;28;20493;-82
2021/10/18 12:13:37;;;;;;;25.27;6.67;;;14.90;1.00;;;;;;5026808;28;23169;-82
2021/10/18 12:16:02;;;;;;;23.70;6.47;;;14.90;1.00;;;;;;5012368;28;23489;-82
2021/10/18 12:18:30;;;;;;;27.00;7.03;;;14.90;1.00;;;;;;5023748;28;20454;-83
2021/10/18 12:21:06;;;;;;;21.40;4.93;;;15.00;1.00;;;;;;5027286;28;20536;-83
2021/10/18 12:23:35;;;;;;;20.17;5.23;;;15.00;1.00;;;;;;5024131;28;20450;-83
2021/10/18 12:26:12;;;;;;;22.47;6.40;;;15.10;1.00;;;;;;5022063;28;20465;-83
2021/10/18 12:28:40;;;;;;;24.67;6.27;;;15.10;1.00;;;;;;5023384;28;20861;-84
2021/10/18 12:31:22;;;;;;;22.90;6.10;;;15.20;1.00;;;;;;5023896;28;20445;-83
2021/10/18 12:34:18;;;;;;;22.50;5.40;;;15.20;1.00;;;;;;5024607;28;20449;-83
2021/10/18 12:36:55;;;;;;;22.27;5.07;;;15.30;1.00;;;;;;5008073;28;20527;-84
2021/10/18 12:39:54;;;;;;;21.57;6.10;;;15.40;1.00;;;;;;5027543;28;20445;-84
2021/10/18 12:42:20;;;;;;;27.67;6.43;;;15.30;1.00;;;;;;5023727;28;20450;-83
2021/10/18 12:44:48;;;;;;;20.57;4.63;;;15.30;1.00;;;;;;5014109;28;21035;-84
2021/10/18 12:47:20;;;;;;;21.83;5.43;;;15.30;1.00;;;;;;5022949;28;20183;-84
2021/10/18 12:49:53;;;;;;;21.30;5.13;;;15.30;1.00;;;;;;5023908;28;20549;-84
2021/10/18 12:52:32;;;;;;;24.17;5.70;;;15.40;1.00;;;;;;5020940;28;20493;-83
2021/10/18 12:54:59;;;;;;;21.07;4.83;;;15.50;1.00;;;;;;5024468;28;20576;-83
2021/10/18 12:57:27;;;;;;;21.47;4.97;;;15.60;1.00;;;;;;5026308;28;20461;-83
2021/10/18 13:00:04;;;;;;;21.63;5.20;;;15.60;1.00;;;;;;5017973;28;20457;-82
2021/10/18 13:02:32;;;;;;;22.30;4.87;;;15.60;1.00;;;;;;5025866;28;20428;-82
2021/10/18 13:05:12;;;;;;;20.17;3.90;;;15.50;1.00;;;;;;5029927;28;20473;-83
2021/10/18 13:07:54;;;;;;;24.93;5.87;;;15.50;1.00;;;;;;5023734;28;20536;-83
2021/10/18 13:10:21;;;;;;;22.57;5.60;;;15.50;1.00;;;;;;5027223;28;20816;-84
2021/10/18 13:12:47;;;;;;;22.37;5.03;;;15.40;1.00;;;;;;5027674;28;20808;-83
2021/10/18 13:15:16;;;;;;;22.70;5.03;;;15.30;1.00;;;;;;5031818;28;20562;-83
2021/10/18 13:17:42;;;;;;;18.37;4.67;;;15.20;1.00;;;;;;5024777;28;20968;-82
2021/10/18 13:20:09;;;;;;;20.80;5.67;;;15.20;1.00;;;;;;5025970;28;20507;-83
2021/10/18 13:22:36;;;;;;;24.00;5.80;;;15.10;1.00;;;;;;5029388;28;21082;-83
2021/10/18 13:25:02;;;;;;;22.10;5.60;;;15.00;1.00;;;;;;5028358;28;20462;-83
2021/10/18 13:27:31;;;;;;;19.87;5.40;;;15.00;1.00;;;;;;5027144;28;20472;-83
2021/10/18 13:29:57;;;;;;;20.40;5.13;;;14.90;1.00;;;;;;5024223;28;20457;-82
2021/10/18 13:32:23;;;;;;;22.37;6.30;;;14.80;1.00;;;;;;5027071;28;20453;-83
2021/10/18 13:34:49;;;;;;;24.03;7.23;;;14.80;1.00;;;;;;5029609;28;20477;-83
2021/10/18 13:37:14;;;;;;;21.63;6.17;;;14.70;1.00;;;;;;5027982;28;20187;-82
2021/10/18 13:39:42;;;;;;;22.10;6.70;;;14.70;1.00;;;;;;5022772;28;20194;-85
2021/10/18 13:42:09;;;;;;;23.00;6.40;;;14.70;1.00;;;;;;5019564;28;20199;-82
2021/10/18 13:44:36;;;;;;;21.03;5.20;;;14.60;1.00;;;;;;5030743;28;20437;-82
2021/10/18 13:47:03;;;;;;;22.90;6.80;;;14.60;1.00;;;;;;5020616;28;20448;-84
2021/10/18 13:49:29;;;;;;;22.43;6.17;;;14.70;1.00;;;;;;5025570;28;20958;-84
2021/10/18 13:51:55;;;;;;;23.93;5.80;;;14.60;1.00;;;;;;5024438;28;20932;-84
2021/10/18 13:54:20;;;;;;;25.27;6.63;;;14.60;1.00;;;;;;5014184;28;20588;-84
2021/10/18 13:56:46;;;;;;;21.57;6.20;;;14.60;1.00;;;;;;5021187;28;20457;-83
2021/10/18 13:59:13;;;;;;;24.87;6.40;;;14.60;1.00;;;;;;5025392;28;20210;-83
2021/10/18 14:01:39;;;;;;;21.47;5.50;;;14.60;1.00;;;;;;5005019;28;20849;-85
2021/10/18 14:04:05;;;;;;;21.43;6.30;;;14.60;1.00;;;;;;5003707;28;20493;-83
2021/10/18 14:06:31;;;;;;;22.97;5.90;;;14.50;1.00;;;;;;5011431;28;20187;-84
2021/10/18 14:08:57;;;;;;;24.83;5.57;;;14.50;1.00;;;;;;5021248;28;20504;-83
2021/10/18 14:11:23;;;;;;;25.00;6.10;;;14.50;1.00;;;;;;5022471;28;22808;-84
2021/10/18 14:13:48;;;;;;;21.87;5.93;;;14.50;1.00;;;;;;5022573;28;20476;-83
2021/10/18 14:16:14;;;;;;;23.87;7.17;;;14.40;1.00;;;;;;5030267;28;20321;-83